GLO1290 SBGR-SBCH
Flight info
| Callsign | GLO1290 |
|---|---|
| Flight time | 1h 12m |
| Altitude | 36000 |
| Route | SOVSI UZ85 RAXIT DCT UMDOR DCT |
| Aircraft | B738/M-SDFGIKLORWX/LB1 |
Departure
| Time | 2026-05-08 00:22 |
|---|---|
| Airport | São Paulo/Guarulhos–Governor André Franco Montoro International Airport (SBGR) |
Arrival
| Time | 2026-05-08 01:34 |
|---|---|
| Airport | Serafin Enoss Bertaso Airport (SBCH) |
| Time | Latitude | Longitude | Altitude | Speed | Heading |
|---|---|---|---|---|---|
| 2026-05-08 00:07 | -23.42893 | -46.48063 | 2447 ft | 0 kts | 84° |
| 2026-05-08 00:08 | -23.42892 | -46.48063 | 2447 ft | 0 kts | 84° |
| 2026-05-08 00:14 | -23.42893 | -46.48064 | 2447 ft | 1 kts | 84° |
| 2026-05-08 00:14 | -23.42894 | -46.48079 | 2447 ft | 2 kts | 84° |
| 2026-05-08 00:14 | -23.42896 | -46.48095 | 2447 ft | 2 kts | 84° |
| 2026-05-08 00:14 | -23.42895 | -46.48112 | 2447 ft | 2 kts | 119° |
| 2026-05-08 00:15 | -23.42884 | -46.48124 | 2446 ft | 2 kts | 152° |
| 2026-05-08 00:15 | -23.42870 | -46.48128 | 2447 ft | 2 kts | 182° |
| 2026-05-08 00:15 | -23.42861 | -46.48128 | 2447 ft | 1 kts | 175° |
| 2026-05-08 00:15 | -23.42860 | -46.48128 | 2447 ft | 0 kts | 175° |
| 2026-05-08 00:18 | -23.42867 | -46.48127 | 2447 ft | 3 kts | 175° |
| 2026-05-08 00:18 | -23.42911 | -46.48130 | 2446 ft | 9 kts | 195° |
| 2026-05-08 00:19 | -23.42982 | -46.48138 | 2446 ft | 10 kts | 174° |
| 2026-05-08 00:19 | -23.43055 | -46.48130 | 2446 ft | 10 kts | 174° |
| 2026-05-08 00:19 | -23.43131 | -46.48118 | 2446 ft | 11 kts | 166° |
| 2026-05-08 00:19 | -23.43212 | -46.48092 | 2448 ft | 11 kts | 163° |
| 2026-05-08 00:20 | -23.43283 | -46.48069 | 2450 ft | 10 kts | 163° |
| 2026-05-08 00:20 | -23.43339 | -46.48050 | 2452 ft | 5 kts | 149° |
| 2026-05-08 00:20 | -23.43342 | -46.48022 | 2452 ft | 3 kts | 73° |
| 2026-05-08 00:20 | -23.43334 | -46.47992 | 2452 ft | 8 kts | 73° |
| 2026-05-08 00:21 | -23.43260 | -46.47721 | 2452 ft | 71 kts | 73° |
| 2026-05-08 00:21 | -23.43060 | -46.46978 | 2452 ft | 130 kts | 74° |
| 2026-05-08 00:21 | -23.42758 | -46.45853 | 2453 ft | 178 kts | 73° |
| 2026-05-08 00:21 | -23.42385 | -46.44512 | 2897 ft | 186 kts | 69° |
| 2026-05-08 00:22 | -23.41995 | -46.43169 | 3523 ft | 190 kts | 69° |
| 2026-05-08 00:22 | -23.41585 | -46.41776 | 4046 ft | 199 kts | 68° |
| 2026-05-08 00:22 | -23.41140 | -46.40298 | 4521 ft | 212 kts | 68° |
| 2026-05-08 00:22 | -23.40670 | -46.38727 | 5001 ft | 225 kts | 68° |
| 2026-05-08 00:23 | -23.40222 | -46.37074 | 5480 ft | 232 kts | 74° |
| 2026-05-08 00:23 | -23.40171 | -46.35315 | 5946 ft | 243 kts | 97° |
| 2026-05-08 00:23 | -23.40698 | -46.33511 | 6447 ft | 257 kts | 107° |
| 2026-05-08 00:23 | -23.41375 | -46.31680 | 6927 ft | 261 kts | 107° |
| 2026-05-08 00:24 | -23.42032 | -46.29849 | 7401 ft | 262 kts | 106° |
| 2026-05-08 00:24 | -23.42715 | -46.27978 | 7885 ft | 272 kts | 112° |
| 2026-05-08 00:24 | -23.43817 | -46.26234 | 8351 ft | 285 kts | 136° |
| 2026-05-08 00:24 | -23.45545 | -46.25208 | 8829 ft | 290 kts | 167° |
| 2026-05-08 00:25 | -23.47570 | -46.25124 | 9317 ft | 289 kts | 191° |
| 2026-05-08 00:25 | -23.49542 | -46.25521 | 9790 ft | 290 kts | 193° |
| 2026-05-08 00:25 | -23.51529 | -46.25967 | 10314 ft | 290 kts | 193° |
| 2026-05-08 00:25 | -23.53502 | -46.26473 | 10900 ft | 294 kts | 200° |
| 2026-05-08 00:26 | -23.55338 | -46.27437 | 11477 ft | 295 kts | 220° |
| 2026-05-08 00:26 | -23.56755 | -46.29053 | 12047 ft | 295 kts | 241° |
| 2026-05-08 00:26 | -23.57739 | -46.31025 | 12510 ft | 305 kts | 247° |
| 2026-05-08 00:26 | -23.58708 | -46.33178 | 12873 ft | 321 kts | 247° |
| 2026-05-08 00:27 | -23.59710 | -46.35397 | 13231 ft | 336 kts | 246° |
| 2026-05-08 00:27 | -23.60784 | -46.37751 | 13593 ft | 352 kts | 246° |
| 2026-05-08 00:27 | -23.61897 | -46.40175 | 13977 ft | 365 kts | 246° |
| 2026-05-08 00:27 | -23.63046 | -46.42667 | 14578 ft | 370 kts | 246° |
| 2026-05-08 00:28 | -23.64195 | -46.45158 | 15224 ft | 374 kts | 246° |
| 2026-05-08 00:28 | -23.65370 | -46.47707 | 15897 ft | 376 kts | 246° |
| 2026-05-08 00:28 | -23.66552 | -46.50277 | 16523 ft | 380 kts | 246° |
| 2026-05-08 00:28 | -23.67726 | -46.52834 | 17178 ft | 382 kts | 246° |
| 2026-05-08 00:29 | -23.68924 | -46.55449 | 17825 ft | 384 kts | 246° |
| 2026-05-08 00:29 | -23.70122 | -46.58062 | 18523 ft | 384 kts | 245° |
| 2026-05-08 00:29 | -23.71299 | -46.60631 | 19217 ft | 384 kts | 245° |
| 2026-05-08 00:29 | -23.72502 | -46.63258 | 19876 ft | 385 kts | 245° |
| 2026-05-08 00:30 | -23.73692 | -46.65858 | 20567 ft | 384 kts | 245° |
| 2026-05-08 00:30 | -23.74884 | -46.68464 | 21183 ft | 386 kts | 245° |
| 2026-05-08 00:30 | -23.76079 | -46.71077 | 21804 ft | 386 kts | 245° |
| 2026-05-08 00:30 | -23.77271 | -46.73686 | 22458 ft | 385 kts | 245° |
| 2026-05-08 00:31 | -23.78475 | -46.76325 | 23009 ft | 388 kts | 245° |
| 2026-05-08 00:31 | -23.79669 | -46.78944 | 23544 ft | 390 kts | 245° |
| 2026-05-08 00:31 | -23.80887 | -46.81616 | 24090 ft | 392 kts | 245° |
| 2026-05-08 00:31 | -23.82094 | -46.84267 | 24542 ft | 395 kts | 245° |
| 2026-05-08 00:32 | -23.83318 | -46.86956 | 25055 ft | 397 kts | 245° |
| 2026-05-08 00:32 | -23.84549 | -46.89664 | 25520 ft | 400 kts | 245° |
| 2026-05-08 00:32 | -23.85798 | -46.92411 | 26018 ft | 402 kts | 245° |
| 2026-05-08 00:32 | -23.87048 | -46.95161 | 26487 ft | 404 kts | 245° |
| 2026-05-08 00:33 | -23.88297 | -46.97911 | 26904 ft | 407 kts | 245° |
| 2026-05-08 00:33 | -23.89565 | -47.00703 | 27366 ft | 409 kts | 245° |
| 2026-05-08 00:33 | -23.90840 | -47.03512 | 27800 ft | 411 kts | 245° |
| 2026-05-08 00:33 | -23.92112 | -47.06317 | 28196 ft | 414 kts | 245° |
| 2026-05-08 00:34 | -23.93382 | -47.09118 | 28614 ft | 416 kts | 245° |
| 2026-05-08 00:34 | -23.94686 | -47.11995 | 28961 ft | 420 kts | 245° |
| 2026-05-08 00:34 | -23.95978 | -47.14850 | 29419 ft | 420 kts | 245° |
| 2026-05-08 00:34 | -23.97261 | -47.17685 | 29779 ft | 423 kts | 245° |
| 2026-05-08 00:35 | -23.98573 | -47.20587 | 30294 ft | 422 kts | 245° |
| 2026-05-08 00:35 | -23.99876 | -47.23467 | 30768 ft | 422 kts | 245° |
| 2026-05-08 00:35 | -24.01184 | -47.26363 | 31139 ft | 423 kts | 244° |
| 2026-05-08 00:35 | -24.02486 | -47.29249 | 31588 ft | 423 kts | 245° |
| 2026-05-08 00:36 | -24.03773 | -47.32103 | 32206 ft | 418 kts | 244° |
| 2026-05-08 00:36 | -24.05045 | -47.34924 | 32834 ft | 412 kts | 244° |
| 2026-05-08 00:36 | -24.06312 | -47.37737 | 33387 ft | 409 kts | 244° |
| 2026-05-08 00:36 | -24.07577 | -47.40550 | 33964 ft | 405 kts | 244° |
| 2026-05-08 00:37 | -24.08859 | -47.43281 | 34499 ft | 401 kts | 242° |
| 2026-05-08 00:37 | -24.10329 | -47.45884 | 34987 ft | 400 kts | 236° |
| 2026-05-08 00:37 | -24.12053 | -47.48252 | 35470 ft | 398 kts | 230° |
| 2026-05-08 00:38 | -24.16278 | -47.52211 | 35997 ft | 405 kts | 217° |
| 2026-05-08 00:38 | -24.21198 | -47.55280 | 35972 ft | 408 kts | 213° |
| 2026-05-08 00:39 | -24.26180 | -47.58318 | 35960 ft | 406 kts | 214° |
| 2026-05-08 00:39 | -24.31006 | -47.61480 | 35948 ft | 406 kts | 216° |
| 2026-05-08 00:40 | -24.35836 | -47.64783 | 35936 ft | 407 kts | 217° |
| 2026-05-08 00:40 | -24.40568 | -47.68142 | 35937 ft | 402 kts | 220° |
| 2026-05-08 00:41 | -24.44855 | -47.72023 | 35930 ft | 401 kts | 226° |
| 2026-05-08 00:41 | -24.48900 | -47.76237 | 35929 ft | 398 kts | 228° |
| 2026-05-08 00:42 | -24.52868 | -47.80482 | 35931 ft | 400 kts | 228° |
| 2026-05-08 00:42 | -24.56885 | -47.84772 | 35927 ft | 400 kts | 228° |
| 2026-05-08 00:43 | -24.60855 | -47.88995 | 35927 ft | 399 kts | 228° |
| 2026-05-08 00:43 | -24.64888 | -47.93285 | 35929 ft | 400 kts | 228° |
| 2026-05-08 00:44 | -24.68876 | -47.97519 | 35915 ft | 398 kts | 228° |
| 2026-05-08 00:44 | -24.72872 | -48.01770 | 35931 ft | 400 kts | 229° |
| 2026-05-08 00:45 | -24.76863 | -48.06018 | 35932 ft | 399 kts | 229° |
| 2026-05-08 00:45 | -24.80860 | -48.10278 | 35934 ft | 399 kts | 229° |
| 2026-05-08 00:46 | -24.84880 | -48.14568 | 35944 ft | 400 kts | 229° |
| 2026-05-08 00:46 | -24.88862 | -48.18819 | 35956 ft | 401 kts | 229° |
| 2026-05-08 00:47 | -24.92879 | -48.23109 | 35978 ft | 400 kts | 229° |
| 2026-05-08 00:47 | -24.96875 | -48.27381 | 35998 ft | 400 kts | 229° |
| 2026-05-08 00:48 | -25.00851 | -48.31639 | 36012 ft | 400 kts | 229° |
| 2026-05-08 00:48 | -25.04860 | -48.35935 | 36015 ft | 399 kts | 229° |
| 2026-05-08 00:49 | -25.08827 | -48.40191 | 36001 ft | 400 kts | 229° |
| 2026-05-08 00:49 | -25.12502 | -48.44762 | 35984 ft | 394 kts | 237° |
| 2026-05-08 00:50 | -25.15520 | -48.49791 | 35971 ft | 392 kts | 242° |
| 2026-05-08 00:50 | -25.18333 | -48.54949 | 35960 ft | 391 kts | 243° |
| 2026-05-08 00:51 | -25.21107 | -48.60076 | 35943 ft | 392 kts | 243° |
| 2026-05-08 00:51 | -25.23926 | -48.65271 | 35938 ft | 391 kts | 243° |
| 2026-05-08 00:52 | -25.26735 | -48.70436 | 35927 ft | 391 kts | 243° |
| 2026-05-08 00:52 | -25.29539 | -48.75589 | 35935 ft | 391 kts | 243° |
| 2026-05-08 00:53 | -25.32335 | -48.80731 | 35970 ft | 389 kts | 243° |
| 2026-05-08 00:53 | -25.35110 | -48.85842 | 35992 ft | 390 kts | 243° |
| 2026-05-08 00:54 | -25.37913 | -48.91008 | 36013 ft | 390 kts | 243° |
| 2026-05-08 00:54 | -25.40711 | -48.96170 | 36033 ft | 390 kts | 244° |
| 2026-05-08 00:55 | -25.43484 | -49.01291 | 36042 ft | 390 kts | 243° |
| 2026-05-08 00:55 | -25.46288 | -49.06477 | 36040 ft | 390 kts | 243° |
| 2026-05-08 00:56 | -25.49006 | -49.11511 | 36043 ft | 390 kts | 243° |
| 2026-05-08 00:56 | -25.51784 | -49.16658 | 36039 ft | 390 kts | 244° |
| 2026-05-08 00:57 | -25.54551 | -49.21792 | 36031 ft | 390 kts | 244° |
| 2026-05-08 00:57 | -25.57337 | -49.26968 | 36028 ft | 390 kts | 244° |
| 2026-05-08 00:58 | -25.60123 | -49.32148 | 36024 ft | 390 kts | 244° |
| 2026-05-08 00:58 | -25.62889 | -49.37294 | 36025 ft | 389 kts | 244° |
| 2026-05-08 00:59 | -25.65659 | -49.42460 | 36029 ft | 390 kts | 244° |
| 2026-05-08 00:59 | -25.68436 | -49.47645 | 36028 ft | 392 kts | 244° |
| 2026-05-08 01:00 | -25.71205 | -49.52815 | 36027 ft | 388 kts | 244° |
| 2026-05-08 01:00 | -25.73972 | -49.57987 | 36027 ft | 390 kts | 244° |
| 2026-05-08 01:01 | -25.76732 | -49.63156 | 36024 ft | 391 kts | 244° |
| 2026-05-08 01:01 | -25.79510 | -49.68361 | 36022 ft | 390 kts | 245° |
| 2026-05-08 01:02 | -25.82281 | -49.73557 | 36020 ft | 390 kts | 245° |
| 2026-05-08 01:02 | -25.85034 | -49.78730 | 36016 ft | 390 kts | 245° |
| 2026-05-08 01:03 | -25.87796 | -49.83917 | 36016 ft | 390 kts | 245° |
| 2026-05-08 01:03 | -25.90563 | -49.89131 | 36014 ft | 389 kts | 245° |
| 2026-05-08 01:04 | -25.93323 | -49.94335 | 36010 ft | 391 kts | 245° |
| 2026-05-08 01:04 | -25.96088 | -49.99555 | 36005 ft | 392 kts | 245° |
| 2026-05-08 01:05 | -25.98861 | -50.04793 | 35995 ft | 390 kts | 245° |
| 2026-05-08 01:05 | -26.01611 | -50.09992 | 35984 ft | 392 kts | 245° |
| 2026-05-08 01:06 | -26.04377 | -50.15229 | 35984 ft | 391 kts | 245° |
| 2026-05-08 01:06 | -26.07124 | -50.20432 | 35986 ft | 390 kts | 245° |
| 2026-05-08 01:07 | -26.09882 | -50.25669 | 35981 ft | 392 kts | 245° |
| 2026-05-08 01:07 | -26.12635 | -50.30902 | 35980 ft | 391 kts | 245° |
| 2026-05-08 01:08 | -26.15392 | -50.36147 | 35976 ft | 392 kts | 245° |
| 2026-05-08 01:08 | -26.18150 | -50.41402 | 35972 ft | 391 kts | 245° |
| 2026-05-08 01:09 | -26.20869 | -50.46585 | 35971 ft | 389 kts | 245° |
| 2026-05-08 01:09 | -26.23611 | -50.51822 | 35966 ft | 393 kts | 246° |
| 2026-05-08 01:10 | -26.26368 | -50.57093 | 35966 ft | 391 kts | 245° |
| 2026-05-08 01:10 | -26.29115 | -50.62346 | 35965 ft | 392 kts | 245° |
| 2026-05-08 01:11 | -26.31842 | -50.67567 | 35969 ft | 392 kts | 246° |
| 2026-05-08 01:11 | -26.34587 | -50.72832 | 35967 ft | 392 kts | 246° |
| 2026-05-08 01:12 | -26.37341 | -50.78121 | 35969 ft | 393 kts | 246° |
| 2026-05-08 01:12 | -26.40075 | -50.83375 | 35973 ft | 395 kts | 246° |
| 2026-05-08 01:12 | -26.41463 | -50.86046 | 35863 ft | 391 kts | 246° |
| 2026-05-08 01:13 | -26.42816 | -50.88644 | 35509 ft | 385 kts | 246° |
| 2026-05-08 01:13 | -26.44143 | -50.91194 | 34984 ft | 385 kts | 246° |
| 2026-05-08 01:13 | -26.45491 | -50.93792 | 34361 ft | 387 kts | 246° |
| 2026-05-08 01:13 | -26.46855 | -50.96431 | 33706 ft | 395 kts | 246° |
| 2026-05-08 01:14 | -26.48225 | -50.99091 | 33083 ft | 404 kts | 246° |
| 2026-05-08 01:14 | -26.49650 | -51.01856 | 32385 ft | 410 kts | 246° |
| 2026-05-08 01:14 | -26.51069 | -51.04601 | 31592 ft | 412 kts | 246° |
| 2026-05-08 01:14 | -26.52495 | -51.07356 | 30814 ft | 415 kts | 246° |
| 2026-05-08 01:15 | -26.53946 | -51.10157 | 30298 ft | 411 kts | 246° |
| 2026-05-08 01:15 | -26.55364 | -51.12890 | 29805 ft | 408 kts | 247° |
| 2026-05-08 01:15 | -26.56779 | -51.15621 | 29289 ft | 405 kts | 247° |
| 2026-05-08 01:15 | -26.58209 | -51.18394 | 28773 ft | 409 kts | 247° |
| 2026-05-08 01:16 | -26.59630 | -51.21158 | 28246 ft | 410 kts | 247° |
| 2026-05-08 01:16 | -26.61034 | -51.23883 | 27714 ft | 406 kts | 247° |
| 2026-05-08 01:16 | -26.62440 | -51.26612 | 27087 ft | 408 kts | 247° |
| 2026-05-08 01:16 | -26.63870 | -51.29407 | 26466 ft | 421 kts | 247° |
| 2026-05-08 01:17 | -26.65333 | -51.32276 | 25835 ft | 430 kts | 247° |
| 2026-05-08 01:17 | -26.66822 | -51.35183 | 25190 ft | 428 kts | 247° |
| 2026-05-08 01:17 | -26.68306 | -51.38069 | 24510 ft | 426 kts | 247° |
| 2026-05-08 01:17 | -26.69773 | -51.40916 | 23835 ft | 424 kts | 247° |
| 2026-05-08 01:18 | -26.71227 | -51.43742 | 23163 ft | 422 kts | 247° |
| 2026-05-08 01:18 | -26.72686 | -51.46581 | 22493 ft | 420 kts | 247° |
| 2026-05-08 01:18 | -26.73656 | -51.48470 | 22047 ft | 419 kts | 247° |
| 2026-05-08 01:18 | -26.75591 | -51.52243 | 21158 ft | 417 kts | 247° |
| 2026-05-08 01:19 | -26.77040 | -51.55073 | 20492 ft | 415 kts | 246° |
| 2026-05-08 01:19 | -26.78451 | -51.57829 | 19840 ft | 413 kts | 246° |
| 2026-05-08 01:19 | -26.79874 | -51.60610 | 19185 ft | 411 kts | 246° |
| 2026-05-08 01:19 | -26.81284 | -51.63370 | 18531 ft | 408 kts | 246° |
| 2026-05-08 01:20 | -26.82696 | -51.66140 | 17874 ft | 406 kts | 248° |
| 2026-05-08 01:20 | -26.84069 | -51.68863 | 17226 ft | 403 kts | 248° |
| 2026-05-08 01:20 | -26.85445 | -51.71598 | 16579 ft | 401 kts | 248° |
| 2026-05-08 01:20 | -26.86807 | -51.74301 | 15936 ft | 398 kts | 247° |
| 2026-05-08 01:21 | -26.88172 | -51.77000 | 15292 ft | 395 kts | 247° |
| 2026-05-08 01:21 | -26.89525 | -51.79672 | 14643 ft | 392 kts | 247° |
| 2026-05-08 01:21 | -26.90852 | -51.82280 | 14006 ft | 390 kts | 247° |
| 2026-05-08 01:21 | -26.92195 | -51.84916 | 13358 ft | 386 kts | 247° |
| 2026-05-08 01:22 | -26.93516 | -51.87508 | 12722 ft | 383 kts | 247° |
| 2026-05-08 01:22 | -26.94834 | -51.90095 | 12078 ft | 379 kts | 248° |
| 2026-05-08 01:22 | -26.96129 | -51.92642 | 11441 ft | 376 kts | 248° |
| 2026-05-08 01:22 | -26.97421 | -51.95186 | 10801 ft | 373 kts | 248° |
| 2026-05-08 01:23 | -26.98688 | -51.97678 | 10414 ft | 362 kts | 248° |
| 2026-05-08 01:23 | -26.99914 | -52.00077 | 10170 ft | 348 kts | 248° |
| 2026-05-08 01:23 | -27.01094 | -52.02391 | 9928 ft | 336 kts | 249° |
| 2026-05-08 01:23 | -27.02234 | -52.04631 | 9687 ft | 325 kts | 249° |
| 2026-05-08 01:24 | -27.03329 | -52.06797 | 9443 ft | 314 kts | 250° |
| 2026-05-08 01:24 | -27.04398 | -52.08913 | 9198 ft | 304 kts | 250° |
| 2026-05-08 01:24 | -27.05427 | -52.10946 | 8956 ft | 296 kts | 250° |
| 2026-05-08 01:24 | -27.06420 | -52.12918 | 8715 ft | 288 kts | 251° |
| 2026-05-08 01:25 | -27.07397 | -52.14866 | 8470 ft | 280 kts | 251° |
| 2026-05-08 01:25 | -27.08338 | -52.16745 | 8226 ft | 274 kts | 252° |
| 2026-05-08 01:25 | -27.09259 | -52.18581 | 7993 ft | 267 kts | 252° |
| 2026-05-08 01:25 | -27.10159 | -52.20369 | 7783 ft | 259 kts | 252° |
| 2026-05-08 01:26 | -27.11033 | -52.22107 | 7586 ft | 251 kts | 253° |
| 2026-05-08 01:26 | -27.11887 | -52.23806 | 7388 ft | 244 kts | 253° |
| 2026-05-08 01:26 | -27.12711 | -52.25449 | 7188 ft | 237 kts | 254° |
| 2026-05-08 01:26 | -27.13499 | -52.27014 | 7013 ft | 228 kts | 254° |
| 2026-05-08 01:27 | -27.14267 | -52.28537 | 6809 ft | 220 kts | 255° |
| 2026-05-08 01:27 | -27.15016 | -52.30024 | 6612 ft | 214 kts | 255° |
| 2026-05-08 01:27 | -27.15734 | -52.31449 | 6432 ft | 207 kts | 257° |
| 2026-05-08 01:27 | -27.16437 | -52.32865 | 6318 ft | 211 kts | 257° |
| 2026-05-08 01:28 | -27.17146 | -52.34316 | 6196 ft | 206 kts | 258° |
| 2026-05-08 01:28 | -27.17625 | -52.35775 | 6075 ft | 191 kts | 278° |
| 2026-05-08 01:28 | -27.17504 | -52.37167 | 5964 ft | 175 kts | 295° |
| 2026-05-08 01:28 | -27.17218 | -52.38518 | 5843 ft | 176 kts | 294° |
| 2026-05-08 01:29 | -27.17007 | -52.39867 | 5726 ft | 177 kts | 291° |
| 2026-05-08 01:29 | -27.16815 | -52.41239 | 5610 ft | 180 kts | 291° |
| 2026-05-08 01:29 | -27.16616 | -52.42648 | 5478 ft | 183 kts | 291° |
| 2026-05-08 01:29 | -27.16413 | -52.44069 | 5304 ft | 181 kts | 291° |
| 2026-05-08 01:30 | -27.16211 | -52.45456 | 5170 ft | 182 kts | 291° |
| 2026-05-08 01:30 | -27.16000 | -52.46875 | 5022 ft | 185 kts | 290° |
| 2026-05-08 01:30 | -27.15800 | -52.48303 | 4865 ft | 184 kts | 290° |
| 2026-05-08 01:30 | -27.15600 | -52.49722 | 4711 ft | 184 kts | 290° |
| 2026-05-08 01:31 | -27.15402 | -52.51121 | 4528 ft | 179 kts | 290° |
| 2026-05-08 01:31 | -27.15213 | -52.52485 | 4312 ft | 172 kts | 289° |
| 2026-05-08 01:31 | -27.15022 | -52.53791 | 4149 ft | 166 kts | 290° |
| 2026-05-08 01:31 | -27.14843 | -52.55050 | 3970 ft | 162 kts | 290° |
| 2026-05-08 01:32 | -27.14657 | -52.56307 | 3863 ft | 164 kts | 289° |
| 2026-05-08 01:32 | -27.14491 | -52.57546 | 3625 ft | 158 kts | 288° |
| 2026-05-08 01:32 | -27.14339 | -52.58726 | 3359 ft | 148 kts | 289° |
| 2026-05-08 01:32 | -27.14176 | -52.59823 | 3129 ft | 141 kts | 290° |
| 2026-05-08 01:33 | -27.14031 | -52.60931 | 2956 ft | 145 kts | 289° |
| 2026-05-08 01:33 | -27.13901 | -52.62067 | 2725 ft | 148 kts | 286° |
| 2026-05-08 01:33 | -27.13764 | -52.63227 | 2489 ft | 149 kts | 288° |
| 2026-05-08 01:33 | -27.13599 | -52.64364 | 2293 ft | 149 kts | 286° |
| 2026-05-08 01:34 | -27.13444 | -52.65513 | 2150 ft | 138 kts | 285° |
| 2026-05-08 01:34 | -27.13327 | -52.66308 | 2147 ft | 59 kts | 279° |
| 2026-05-08 01:34 | -27.13283 | -52.66625 | 2147 ft | 37 kts | 278° |
| 2026-05-08 01:34 | -27.13251 | -52.66830 | 2147 ft | 16 kts | 296° |
| 2026-05-08 01:35 | -27.13231 | -52.66884 | 2147 ft | 7 kts | 183° |
| 2026-05-08 01:35 | -27.13255 | -52.66833 | 2147 ft | 9 kts | 97° |
| 2026-05-08 01:35 | -27.13267 | -52.66740 | 2147 ft | 14 kts | 99° |
| 2026-05-08 01:35 | -27.13287 | -52.66599 | 2147 ft | 21 kts | 99° |
| 2026-05-08 01:36 | -27.13310 | -52.66430 | 2147 ft | 21 kts | 101° |
| 2026-05-08 01:36 | -27.13334 | -52.66265 | 2147 ft | 21 kts | 98° |
| 2026-05-08 01:36 | -27.13346 | -52.66135 | 2147 ft | 9 kts | 70° |
| 2026-05-08 01:36 | -27.13290 | -52.66101 | 2147 ft | 9 kts | 14° |
| 2026-05-08 01:37 | -27.13254 | -52.66075 | 2147 ft | 5 kts | 53° |
| 2026-05-08 01:37 | -27.13242 | -52.66053 | 2147 ft | 0 kts | 59° |